createdAt,value
2019-03-04T00:00:38.700Z,71.90
2019-03-04T00:03:07.127Z,72.00
2019-03-04T00:05:35.198Z,72.20
2019-03-04T00:08:03.075Z,72.50
2019-03-04T00:10:31.284Z,72.90
2019-03-04T00:12:59.274Z,73.40
2019-03-04T00:15:27.164Z,73.90
2019-03-04T00:17:55.675Z,74.10
2019-03-04T00:20:23.681Z,74.40
2019-03-04T00:22:51.595Z,74.80
2019-03-04T00:25:19.507Z,75.20
2019-03-04T00:27:47.438Z,75.20
2019-03-04T00:30:15.626Z,75.20
2019-03-04T00:32:45.282Z,75.40
2019-03-04T00:35:13.072Z,75.60
2019-03-04T00:37:41.102Z,76.00
2019-03-04T00:40:09.665Z,76.00
2019-03-04T00:42:37.984Z,76.00
2019-03-04T00:45:06.143Z,76.30
2019-03-04T00:47:34.072Z,77.60
2019-03-04T00:50:02.000Z,77.10
2019-03-04T00:52:29.955Z,77.60
2019-03-04T00:54:57.949Z,77.60
2019-03-04T00:57:26.357Z,77.80
2019-03-04T00:59:54.328Z,78.30
2019-03-04T01:02:22.234Z,78.30
2019-03-04T01:04:50.202Z,78.70
2019-03-04T01:07:18.519Z,79.30
2019-03-04T01:09:46.640Z,79.30
2019-03-04T01:12:14.555Z,79.40
2019-03-04T01:14:42.891Z,79.70
2019-03-04T01:17:10.951Z,80.00
2019-03-04T01:19:39.162Z,80.20
2019-03-04T01:22:07.402Z,80.70
2019-03-04T01:24:35.307Z,80.60
2019-03-04T01:27:03.851Z,80.60
2019-03-04T01:29:32.208Z,80.90
2019-03-04T01:32:00.594Z,81.30
2019-03-04T01:34:28.571Z,81.50
2019-03-04T01:36:56.736Z,81.90
2019-03-04T01:39:24.950Z,82.20
2019-03-04T01:41:52.780Z,82.10
2019-03-04T01:44:21.131Z,82.30
2019-03-04T01:46:49.014Z,82.70
2019-03-04T01:49:17.311Z,83.70
2019-03-04T01:51:45.693Z,83.10
2019-03-04T01:54:13.674Z,82.90
2019-03-04T01:56:41.543Z,83.40
2019-03-04T01:59:09.391Z,83.40
2019-03-04T02:01:37.395Z,83.60
2019-03-04T02:04:05.353Z,84.10
2019-03-04T02:06:33.211Z,84.30
2019-03-04T02:09:01.699Z,85.00
2019-03-04T02:11:29.718Z,84.70
2019-03-04T02:13:57.639Z,85.20
2019-03-04T02:16:25.747Z,85.90
2019-03-04T02:18:53.651Z,86.50
2019-03-04T02:21:21.648Z,86.70
2019-03-04T02:23:49.559Z,87.10
2019-03-04T02:26:26.712Z,87.80
2019-03-04T02:28:55.050Z,88.90
2019-03-04T02:31:22.999Z,89.50
2019-03-04T02:33:50.982Z,89.40
2019-03-04T02:36:19.111Z,89.70
2019-03-04T02:38:46.996Z,89.50
2019-03-04T02:41:15.232Z,89.90
2019-03-04T02:43:43.108Z,90.00
2019-03-04T02:46:11.513Z,90.00
2019-03-04T02:48:39.466Z,89.80
2019-03-04T02:51:07.962Z,89.50
2019-03-04T02:53:36.047Z,89.70
2019-03-04T02:56:04.151Z,90.30
2019-03-04T02:58:32.057Z,90.40
2019-03-04T03:01:00.470Z,90.60
2019-03-04T03:03:28.481Z,90.90
2019-03-04T03:05:56.347Z,91.30
2019-03-04T03:08:24.270Z,91.30
2019-03-04T03:10:52.562Z,91.20
2019-03-04T03:13:20.927Z,91.40
2019-03-04T03:15:48.963Z,91.50
2019-03-04T03:18:16.801Z,91.70
2019-03-04T03:20:44.997Z,91.90
2019-03-04T03:23:13.132Z,91.80
2019-03-04T03:25:40.975Z,91.70
2019-03-04T03:28:09.308Z,91.60
2019-03-04T03:30:37.154Z,91.40
2019-03-04T03:33:05.173Z,91.50
2019-03-04T03:35:33.806Z,91.50
2019-03-04T03:38:02.062Z,91.60
2019-03-04T03:40:30.391Z,91.40
2019-03-04T03:42:58.715Z,91.30
2019-03-04T03:45:27.229Z,91.20
2019-03-04T03:47:55.524Z,91.10
2019-03-04T03:50:23.894Z,91.10
2019-03-04T03:52:51.761Z,91.40
2019-03-04T03:55:20.133Z,91.60
2019-03-04T03:57:48.837Z,91.80
2019-03-04T04:00:17.933Z,91.90
2019-03-04T04:02:47.308Z,92.00
2019-03-04T04:05:15.360Z,92.30
2019-03-04T04:07:44.787Z,92.10
2019-03-04T04:10:12.812Z,92.30
2019-03-04T04:12:41.296Z,92.50
2019-03-04T04:15:10.073Z,92.50
2019-03-04T04:17:38.025Z,92.50
2019-03-04T04:20:06.612Z,92.70
2019-03-04T04:22:34.629Z,92.90
2019-03-04T04:25:02.668Z,92.90
2019-03-04T04:27:30.531Z,93.20
2019-03-04T04:29:58.499Z,93.40
2019-03-04T04:32:27.042Z,93.30
2019-03-04T04:34:55.379Z,93.30
2019-03-04T04:37:23.280Z,93.10
2019-03-04T04:39:51.219Z,92.60
2019-03-04T04:42:19.071Z,92.30
2019-03-04T04:44:46.986Z,92.30
2019-03-04T04:47:14.935Z,92.50
2019-03-04T04:49:42.916Z,92.70
2019-03-04T04:52:10.812Z,92.70
2019-03-04T04:54:39.262Z,92.80
2019-03-04T04:57:07.310Z,92.90
2019-03-04T04:59:35.297Z,93.10
2019-03-04T05:02:03.253Z,93.40
2019-03-04T05:04:31.226Z,93.40
2019-03-04T05:06:59.143Z,93.60
2019-03-04T05:09:27.095Z,93.80
2019-03-04T05:11:55.131Z,93.70
2019-03-04T05:14:23.509Z,93.60
2019-03-04T05:16:51.450Z,93.60
2019-03-04T05:19:19.448Z,93.60
2019-03-04T05:21:47.378Z,93.50
2019-03-04T05:24:15.326Z,93.70
2019-03-04T05:26:43.170Z,93.90
2019-03-04T05:29:11.019Z,93.80
2019-03-04T05:31:38.946Z,93.80
2019-03-04T05:34:06.947Z,93.60
2019-03-04T05:36:34.818Z,93.60
2019-03-04T05:39:04.759Z,93.80
2019-03-04T05:41:32.617Z,94.10
2019-03-04T05:44:00.666Z,93.80
2019-03-04T05:46:28.491Z,94.00
2019-03-04T05:48:56.441Z,94.10
2019-03-04T05:51:24.366Z,94.20
2019-03-04T05:53:52.264Z,94.70
2019-03-04T05:56:20.220Z,94.20
2019-03-04T05:58:48.163Z,94.30
2019-03-04T06:01:23.894Z,94.50
2019-03-04T06:03:53.823Z,94.50
2019-03-04T06:06:39.867Z,94.50
2019-03-04T06:09:09.585Z,94.90
2019-03-04T06:11:37.407Z,94.80
2019-03-04T06:14:06.191Z,95.00
2019-03-04T06:16:34.090Z,95.00
2019-03-04T06:19:01.979Z,95.00
2019-03-04T06:21:29.928Z,95.00
2019-03-04T06:23:57.863Z,95.00
2019-03-04T06:26:25.986Z,95.00
2019-03-04T06:28:53.835Z,94.70
2019-03-04T06:31:21.727Z,94.80
2019-03-04T06:33:49.624Z,95.00
2019-03-04T06:36:17.510Z,95.00
2019-03-04T06:38:45.419Z,95.10
2019-03-04T06:41:13.410Z,95.40
2019-03-04T06:43:41.275Z,95.60
2019-03-04T06:46:09.463Z,95.60
2019-03-04T06:48:37.367Z,95.70
2019-03-04T06:51:06.886Z,95.80
2019-03-04T06:53:42.167Z,95.90
2019-03-04T06:56:15.673Z,96.10
2019-03-04T06:58:45.687Z,96.10
2019-03-04T07:01:21.516Z,96.20
2019-03-04T07:04:15.919Z,96.30
2019-03-04T07:06:44.053Z,96.30
2019-03-04T07:09:17.218Z,96.40
2019-03-04T07:11:49.051Z,96.70
2019-03-04T07:14:17.976Z,96.70
2019-03-04T07:16:46.707Z,96.80
2019-03-04T07:19:17.766Z,97.10
2019-03-04T07:21:45.840Z,97.20
2019-03-04T07:24:13.751Z,97.20
2019-03-04T07:26:41.702Z,97.20
2019-03-04T07:29:09.941Z,97.10
2019-03-04T07:31:37.796Z,97.40
2019-03-04T07:34:06.211Z,97.80
2019-03-04T07:36:34.583Z,97.80
2019-03-04T07:39:08.563Z,97.40
2019-03-04T07:41:38.514Z,97.50
2019-03-04T07:44:06.502Z,97.90
2019-03-04T07:46:34.555Z,98.10
2019-03-04T07:49:02.565Z,98.20
2019-03-04T07:51:30.375Z,98.10
2019-03-04T07:53:58.319Z,98.20
2019-03-04T07:56:26.570Z,98.20
2019-03-04T07:58:54.574Z,98.10
2019-03-04T08:01:22.394Z,97.80
2019-03-04T08:03:50.451Z,97.80
2019-03-04T08:06:18.352Z,97.90
2019-03-04T08:09:22.734Z,97.90
2019-03-04T08:12:35.015Z,97.80
2019-03-04T08:15:03.335Z,98.20
2019-03-04T08:17:31.287Z,98.10
2019-03-04T08:19:59.163Z,98.20
2019-03-04T08:22:27.074Z,98.10
2019-03-04T08:24:54.959Z,98.10
2019-03-04T08:27:22.973Z,98.00
2019-03-04T08:29:51.224Z,98.30
2019-03-04T08:32:19.050Z,98.30
2019-03-04T08:34:46.982Z,98.00
2019-03-04T08:37:14.803Z,98.00
2019-03-04T08:39:42.731Z,98.20
2019-03-04T08:42:10.752Z,98.40
2019-03-04T08:44:38.684Z,98.60
2019-03-04T08:47:06.591Z,98.50
2019-03-04T08:49:34.427Z,98.80
2019-03-04T08:52:02.282Z,98.90
2019-03-04T08:54:30.158Z,99.40
2019-03-04T08:57:03.896Z,99.50
2019-03-04T08:59:28.286Z,99.10
2019-03-04T09:01:56.278Z,99.40
2019-03-04T09:04:24.255Z,99.40
2019-03-04T09:06:52.160Z,99.20
2019-03-04T09:09:20.067Z,99.40
2019-03-04T09:11:48.035Z,99.20
2019-03-04T09:14:35.755Z,98.90
2019-03-04T09:17:02.989Z,99.00
2019-03-04T09:19:30.946Z,99.20
2019-03-04T09:21:58.839Z,99.80
2019-03-04T09:24:26.701Z,99.90
2019-03-04T09:26:54.668Z,99.90
2019-03-04T09:29:22.622Z,99.60
2019-03-04T09:31:50.495Z,99.40
2019-03-04T09:34:18.391Z,99.40
2019-03-04T09:36:46.278Z,99.40
2019-03-04T09:39:15.182Z,99.80
2019-03-04T09:41:43.264Z,99.90
2019-03-04T09:44:11.098Z,99.90
2019-03-04T09:46:39.140Z,99.50
2019-03-04T09:49:07.158Z,99.10
2019-03-04T09:51:35.091Z,98.10
2019-03-04T09:54:03.077Z,97.00
2019-03-04T09:56:31.084Z,96.50
2019-03-04T09:58:58.922Z,96.30
2019-03-04T10:01:51.099Z,96.70
2019-03-04T10:04:47.406Z,96.30
2019-03-04T10:07:59.966Z,95.60
2019-03-04T10:10:59.278Z,95.80
2019-03-04T10:14:04.378Z,95.50
2019-03-04T10:17:19.645Z,95.30
2019-03-04T10:20:26.158Z,95.90
2019-03-04T10:23:36.383Z,95.10
2019-03-04T10:26:50.622Z,93.80
2019-03-04T10:30:02.144Z,93.90
2019-03-04T10:33:03.033Z,93.70
2019-03-04T10:36:01.585Z,93.60
2019-03-04T10:39:09.834Z,92.70
2019-03-04T10:42:12.934Z,92.90
2019-03-04T10:45:29.069Z,92.80
2019-03-04T10:47:57.172Z,93.00
2019-03-04T10:50:25.162Z,93.20
2019-03-04T10:52:53.324Z,93.00
2019-03-04T10:55:21.684Z,93.30
2019-03-04T10:57:49.628Z,93.80
2019-03-04T11:00:18.317Z,93.50
2019-03-04T11:02:47.598Z,93.90
2019-03-04T11:05:15.503Z,93.90
2019-03-04T11:07:43.615Z,93.70
2019-03-04T11:10:11.796Z,93.00
2019-03-04T11:12:39.714Z,92.20
2019-03-04T11:15:35.887Z,91.40
2019-03-04T11:18:03.838Z,91.60
2019-03-04T11:20:31.765Z,90.30
2019-03-04T11:22:59.759Z,90.20
2019-03-04T11:25:27.693Z,90.20
2019-03-04T11:27:55.680Z,89.70
2019-03-04T11:30:27.335Z,89.50
2019-03-04T11:32:55.231Z,90.20
2019-03-04T11:35:23.444Z,90.90
2019-03-04T11:37:51.696Z,91.20
2019-03-04T11:40:34.176Z,91.20
2019-03-04T11:43:02.067Z,90.80
2019-03-04T11:45:30.253Z,90.30
2019-03-04T11:47:58.533Z,90.30
2019-03-04T11:50:26.831Z,89.80
2019-03-04T11:52:54.910Z,88.00
2019-03-04T11:55:23.603Z,86.80
2019-03-04T11:57:51.871Z,87.40
2019-03-04T12:00:32.026Z,85.50
2019-03-04T12:03:00.187Z,85.60
2019-03-04T12:05:28.260Z,85.10
2019-03-04T12:07:56.190Z,85.50
2019-03-04T12:10:25.020Z,86.10
2019-03-04T12:12:53.008Z,85.00
2019-03-04T12:15:46.350Z,85.80
2019-03-04T12:18:14.822Z,85.90
2019-03-04T12:20:42.723Z,85.70
2019-03-04T12:23:10.610Z,85.50
2019-03-04T12:25:38.576Z,86.30
2019-03-04T12:28:06.706Z,85.90
2019-03-04T12:30:34.666Z,85.20
2019-03-04T12:33:02.979Z,83.30
2019-03-04T12:35:30.982Z,82.70
2019-03-04T12:37:58.924Z,82.30
2019-03-04T12:40:26.922Z,82.30
2019-03-04T12:42:54.823Z,81.20
2019-03-04T12:45:22.977Z,80.90
2019-03-04T12:47:51.084Z,81.10
2019-03-04T12:50:21.673Z,82.70
2019-03-04T12:52:49.690Z,82.20
2019-03-04T12:55:17.754Z,80.80
2019-03-04T12:57:46.866Z,79.70
2019-03-04T13:00:17.884Z,79.10
2019-03-04T13:02:56.696Z,79.00
2019-03-04T13:05:17.123Z,79.10
2019-03-04T13:07:46.632Z,79.90
2019-03-04T13:10:23.267Z,79.00
2019-03-04T13:12:51.163Z,78.00
2019-03-04T13:15:46.423Z,78.70
2019-03-04T13:18:36.858Z,78.20
2019-03-04T13:21:31.171Z,77.80
2019-03-04T13:24:38.782Z,78.00
2019-03-04T13:27:36.263Z,78.60
2019-03-04T13:30:05.462Z,78.10
2019-03-04T13:32:33.373Z,77.40
2019-03-04T13:35:01.360Z,78.20
2019-03-04T13:37:29.283Z,77.00
2019-03-04T13:39:57.182Z,75.90
2019-03-04T13:42:25.261Z,76.80
2019-03-04T13:44:53.199Z,75.10
2019-03-04T13:47:26.038Z,75.10
2019-03-04T13:49:53.941Z,75.20
2019-03-04T13:52:21.943Z,75.60
2019-03-04T13:54:49.774Z,75.80
2019-03-04T13:57:17.662Z,76.30
2019-03-04T13:59:45.959Z,74.60
2019-03-04T14:02:14.527Z,73.50
2019-03-04T14:04:42.435Z,74.30
2019-03-04T14:07:10.407Z,73.10
2019-03-04T14:09:38.406Z,73.10
2019-03-04T14:12:06.954Z,73.10
2019-03-04T14:15:11.520Z,72.00
2019-03-04T14:17:38.179Z,72.80
2019-03-04T14:20:06.904Z,72.20
2019-03-04T14:22:40.299Z,71.80
2019-03-04T14:25:05.728Z,72.10
2019-03-04T14:27:33.769Z,72.40
2019-03-04T14:30:01.947Z,72.00
2019-03-04T14:32:29.947Z,72.40
2019-03-04T14:34:57.853Z,71.10
2019-03-04T14:37:25.868Z,71.50
2019-03-04T14:39:53.714Z,72.60
2019-03-04T14:42:21.587Z,72.30
2019-03-04T14:44:49.639Z,72.30
2019-03-04T14:47:17.523Z,72.50
2019-03-04T14:49:45.426Z,70.90
2019-03-04T14:52:13.487Z,71.70
2019-03-04T14:54:41.366Z,70.80
2019-03-04T14:57:09.776Z,71.60
2019-03-04T14:59:37.640Z,71.80
2019-03-04T15:02:05.658Z,72.40
2019-03-04T15:04:33.482Z,72.90
2019-03-04T15:07:01.589Z,73.30
2019-03-04T15:09:29.479Z,73.60
2019-03-04T15:11:57.440Z,73.80
2019-03-04T15:14:46.264Z,73.20
2019-03-04T15:17:18.883Z,73.90
2019-03-04T15:19:47.068Z,74.80
2019-03-04T15:22:15.460Z,75.70
2019-03-04T15:24:43.486Z,75.30
2019-03-04T15:27:11.475Z,76.30
2019-03-04T15:29:39.403Z,75.10
2019-03-04T15:32:07.375Z,75.90
2019-03-04T15:34:35.555Z,75.50
2019-03-04T15:37:03.371Z,75.60
2019-03-04T15:39:31.319Z,76.30
2019-03-04T15:41:59.248Z,75.70
2019-03-04T15:44:27.231Z,75.30
2019-03-04T15:46:55.089Z,75.30
2019-03-04T15:49:22.983Z,74.70
2019-03-04T15:51:50.914Z,75.20
2019-03-04T15:54:18.926Z,75.20
2019-03-04T15:56:46.995Z,75.50
2019-03-04T15:59:14.958Z,75.40
2019-03-04T16:01:43.165Z,75.20
2019-03-04T16:04:11.315Z,75.30
2019-03-04T16:06:39.263Z,74.40
2019-03-04T16:09:12.904Z,74.40
2019-03-04T16:11:40.875Z,74.10
2019-03-04T16:14:09.123Z,74.80
2019-03-04T16:16:37.963Z,75.10
2019-03-04T16:19:06.019Z,75.60
2019-03-04T16:21:34.022Z,75.80
2019-03-04T16:24:02.067Z,76.10
2019-03-04T16:26:30.047Z,76.30
2019-03-04T16:28:57.975Z,76.60
2019-03-04T16:31:25.869Z,76.90
2019-03-04T16:33:53.707Z,77.10
2019-03-04T16:36:21.804Z,77.60
2019-03-04T16:38:49.751Z,77.80
2019-03-04T16:41:17.767Z,78.20
2019-03-04T16:43:45.856Z,79.00
2019-03-04T16:46:14.467Z,78.80
2019-03-04T16:48:42.533Z,79.20
2019-03-04T16:51:10.514Z,79.70
2019-03-04T16:53:38.435Z,79.70
2019-03-04T16:56:06.530Z,80.20
2019-03-04T16:58:34.499Z,80.90
2019-03-04T17:01:02.771Z,81.20
2019-03-04T17:03:30.723Z,81.50
2019-03-04T17:05:58.633Z,82.40
2019-03-04T17:08:26.743Z,82.90
2019-03-04T17:10:54.647Z,83.00
2019-03-04T17:13:25.438Z,83.40
2019-03-04T17:16:34.708Z,83.70
2019-03-04T17:19:00.949Z,84.10
2019-03-04T17:21:28.969Z,84.10
2019-03-04T17:23:56.922Z,84.10
2019-03-04T17:26:25.013Z,84.50
2019-03-04T17:28:53.101Z,84.80
2019-03-04T17:31:20.968Z,85.00
2019-03-04T17:33:48.862Z,85.30
2019-03-04T17:36:16.815Z,85.60
2019-03-04T17:38:44.926Z,86.30
2019-03-04T17:41:12.857Z,86.60
2019-03-04T17:43:41.037Z,86.80
2019-03-04T17:46:09.591Z,87.10
2019-03-04T17:48:37.864Z,87.30
2019-03-04T17:51:06.303Z,88.00
2019-03-04T17:53:34.270Z,88.80
2019-03-04T17:56:02.297Z,89.30
2019-03-04T17:58:30.281Z,89.60
2019-03-04T18:00:58.230Z,90.00
2019-03-04T18:03:26.271Z,90.30
2019-03-04T18:05:54.331Z,90.70
2019-03-04T18:08:22.331Z,91.40
2019-03-04T18:10:50.543Z,92.10
2019-03-04T18:13:19.180Z,93.00
2019-03-04T18:16:29.855Z,93.80
2019-03-04T18:18:56.631Z,94.10
2019-03-04T18:21:25.002Z,94.50
2019-03-04T18:23:53.299Z,94.80
2019-03-04T18:26:28.531Z,95.10
2019-03-04T18:29:36.605Z,95.50
2019-03-04T18:32:39.775Z,96.00
2019-03-04T18:35:51.920Z,96.40
2019-03-04T18:38:57.038Z,96.90
2019-03-04T18:41:42.849Z,98.00
2019-03-04T18:44:41.146Z,98.50
2019-03-04T18:47:37.056Z,99.30
2019-03-04T18:50:05.602Z,99.90
2019-03-04T18:52:33.555Z,99.90
2019-03-04T18:55:01.765Z,99.90
2019-03-04T18:57:29.780Z,99.90
2019-03-04T18:59:58.041Z,99.90
2019-03-04T19:02:26.071Z,99.90
2019-03-04T19:04:54.093Z,99.90
2019-03-04T19:07:22.566Z,99.90
2019-03-04T19:09:51.176Z,99.90
2019-03-04T19:12:19.803Z,99.90
2019-03-04T19:15:27.210Z,99.90
2019-03-04T19:17:53.715Z,99.90
2019-03-04T19:20:22.209Z,99.90
2019-03-04T19:22:50.222Z,99.90
2019-03-04T19:25:18.852Z,99.90
2019-03-04T19:27:48.462Z,99.90
2019-03-04T19:30:16.784Z,99.90
2019-03-04T19:32:47.469Z,99.90
2019-03-04T19:35:16.044Z,99.90
2019-03-04T19:37:44.155Z,99.90
2019-03-04T19:40:12.327Z,99.90
2019-03-04T19:42:40.698Z,99.90
2019-03-04T19:45:11.145Z,99.90
2019-03-04T19:47:39.411Z,99.90
2019-03-04T19:50:08.806Z,99.90
2019-03-04T19:52:36.783Z,99.90
2019-03-04T19:55:06.503Z,99.90
2019-03-04T19:57:34.982Z,99.90
2019-03-04T20:00:04.195Z,99.90
2019-03-04T20:02:32.475Z,99.90
2019-03-04T20:05:01.451Z,99.90
2019-03-04T20:07:30.451Z,99.90
2019-03-04T20:09:59.401Z,99.90
2019-03-04T20:12:28.101Z,99.90
2019-03-04T20:15:23.695Z,99.90
2019-03-04T20:17:50.136Z,99.90
2019-03-04T20:20:18.742Z,99.90
2019-03-04T20:22:48.388Z,99.90
2019-03-04T20:25:17.542Z,99.90
2019-03-04T20:27:47.803Z,99.90
2019-03-04T20:30:15.937Z,99.90
2019-03-04T20:32:44.326Z,99.90
2019-03-04T20:35:12.779Z,99.90
2019-03-04T20:37:42.945Z,99.90
2019-03-04T20:40:11.323Z,99.90
2019-03-04T20:42:40.048Z,99.90
2019-03-04T20:45:09.207Z,99.90
2019-03-04T20:47:37.347Z,99.90
2019-03-04T20:50:07.358Z,99.90
2019-03-04T20:52:35.510Z,99.90
2019-03-04T20:55:04.179Z,99.90
2019-03-04T20:57:32.118Z,99.90
2019-03-04T21:00:00.358Z,99.90
2019-03-04T21:02:28.591Z,99.90
2019-03-04T21:04:56.766Z,99.90
2019-03-04T21:07:25.002Z,99.90
2019-03-04T21:09:53.118Z,99.90
2019-03-04T21:12:21.074Z,99.90
2019-03-04T21:15:32.861Z,99.90
2019-03-04T21:18:49.092Z,99.90
2019-03-04T21:21:15.017Z,99.90
2019-03-04T21:23:43.091Z,99.90
2019-03-04T21:27:09.539Z,99.90
2019-03-04T21:29:57.591Z,99.90
2019-03-04T21:33:10.003Z,99.90
2019-03-04T21:36:49.431Z,99.90
2019-03-04T21:39:17.725Z,99.90
2019-03-04T21:41:52.786Z,99.90
2019-03-04T21:45:08.217Z,99.90
2019-03-04T21:47:40.311Z,99.90
2019-03-04T21:50:10.055Z,99.90
2019-03-04T21:53:02.064Z,99.90
2019-03-04T21:55:44.350Z,99.90
2019-03-04T21:58:12.335Z,99.90
2019-03-04T22:00:41.992Z,99.90
2019-03-04T22:03:33.213Z,99.90
2019-03-04T22:06:01.140Z,99.90
2019-03-04T22:08:29.035Z,99.90
2019-03-04T22:10:57.718Z,99.90
2019-03-04T22:13:25.701Z,99.90
2019-03-04T22:16:36.010Z,99.90
2019-03-04T22:19:02.147Z,99.90
2019-03-04T22:21:30.006Z,99.90
2019-03-04T22:23:57.889Z,99.90
2019-03-04T22:26:25.819Z,99.90
2019-03-04T22:28:53.748Z,99.90
2019-03-04T22:31:21.626Z,99.90
2019-03-04T22:33:49.579Z,99.90
2019-03-04T22:36:17.761Z,99.90
2019-03-04T22:38:45.931Z,99.90
2019-03-04T22:41:14.001Z,99.90
2019-03-04T22:43:41.874Z,99.90
2019-03-04T22:46:09.786Z,99.90
2019-03-04T22:48:37.915Z,99.90
2019-03-04T22:51:05.860Z,99.90
2019-03-04T22:53:33.714Z,99.90
2019-03-04T22:56:01.684Z,99.90
2019-03-04T22:58:29.553Z,99.90
2019-03-04T23:01:46.823Z,99.90
2019-03-04T23:04:35.543Z,99.90
2019-03-04T23:07:42.275Z,99.90
2019-03-04T23:10:25.628Z,99.90
2019-03-04T23:13:19.627Z,99.90
2019-03-04T23:15:49.358Z,99.90
2019-03-04T23:18:17.291Z,99.90
2019-03-04T23:20:45.455Z,99.90
2019-03-04T23:23:13.700Z,99.90
2019-03-04T23:25:41.718Z,99.90
2019-03-04T23:28:09.667Z,99.90
2019-03-04T23:30:37.549Z,99.90
2019-03-04T23:33:05.438Z,99.90
2019-03-04T23:35:33.475Z,99.90
2019-03-04T23:38:01.373Z,99.90
2019-03-04T23:40:29.402Z,99.90
2019-03-04T23:42:57.318Z,99.90
2019-03-04T23:45:25.279Z,99.90
2019-03-04T23:47:53.225Z,99.90
2019-03-04T23:50:22.349Z,99.90
2019-03-04T23:52:50.589Z,99.90
2019-03-04T23:55:18.858Z,99.90
2019-03-04T23:57:48.506Z,99.90
